Time;durP1;ratioP1;P1;durP2;ratioP2;P2;SDS_P1;SDS_P2;PMS_P1;PMS_P2;Temp;Humidity;BMP_temperature;BMP_pressure;BME280_temperature;BME280_humidity;BME280_pressure;Samples;Min_cycle;Max_cycle;Signal;HPM_P1;HPM_P2
2023/10/29 00:00:12;;;;;;;6.70;5.43;;;18.70;99.90;;;;;;5056808;28;20040;-70
2023/10/29 00:02:38;;;;;;;9.43;5.43;;;19.10;99.90;;;;;;5039279;28;20051;-70
2023/10/29 00:05:04;;;;;;;7.75;5.78;;;19.60;99.90;;;;;;5056036;28;20044;-70
2023/10/29 00:07:30;;;;;;;8.07;5.30;;;;;;;;;;5056179;28;20037;-71
2023/10/29 00:09:56;;;;;;;8.35;5.93;;;18.70;99.90;;;;;;5056232;28;20124;-70
2023/10/29 00:12:22;;;;;;;7.63;5.00;;;;;;;;;;5056182;28;20096;-70
2023/10/29 00:14:48;;;;;;;6.80;5.45;;;;;;;;;;5039640;28;20164;-70
2023/10/29 00:17:13;;;;;;;6.90;4.90;;;19.30;99.90;;;;;;5056075;28;20040;-70
2023/10/29 00:19:39;;;;;;;7.15;5.38;;;19.70;99.90;;;;;;5056447;28;20411;-69
2023/10/29 00:22:05;;;;;;;5.75;4.90;;;;;;;;;;5055947;28;20033;-70
2023/10/29 00:24:30;;;;;;;7.15;4.70;;;19.70;99.90;;;;;;5055744;28;20039;-70
2023/10/29 00:26:56;;;;;;;8.07;5.10;;;19.70;99.90;;;;;;5038939;28;20036;-70
2023/10/29 00:29:22;;;;;;;11.55;5.80;;;19.40;99.90;;;;;;5039340;28;20063;-70
2023/10/29 00:31:47;;;;;;;6.88;4.70;;;19.50;99.90;;;;;;5055739;28;20500;-70
2023/10/29 00:34:13;;;;;;;7.28;4.50;;;19.80;99.90;;;;;;5055943;28;20127;-70
2023/10/29 00:36:39;;;;;;;6.45;4.53;;;;;;;;;;5039075;28;20043;-69
2023/10/29 00:39:05;;;;;;;5.30;4.57;;;;;;;;;;5055790;28;20076;-70
2023/10/29 00:41:31;;;;;;;5.88;4.22;;;;;;;;;;5055614;28;20076;-71
2023/10/29 00:43:57;;;;;;;6.40;4.68;;;;;;;;;;5056020;28;20083;-71
2023/10/29 00:46:24;;;;;;;5.10;4.00;;;18.70;99.90;;;;;;5055708;28;20036;-70
2023/10/29 00:48:50;;;;;;;5.43;4.22;;;19.10;99.90;;;;;;5038822;28;20084;-70
2023/10/29 00:51:17;;;;;;;4.88;4.10;;;18.50;99.90;;;;;;5055430;28;20044;-70
2023/10/29 00:53:43;;;;;;;5.05;3.83;;;19.60;99.90;;;;;;5055547;28;20062;-70
2023/10/29 00:56:11;;;;;;;6.70;4.20;;;19.80;99.90;;;;;;5055181;28;20922;-68
2023/10/29 00:58:37;;;;;;;4.85;4.35;;;19.70;99.90;;;;;;5055450;28;20121;-69
2023/10/29 01:01:03;;;;;;;4.43;3.75;;;18.90;99.90;;;;;;5055244;28;20496;-70
2023/10/29 01:03:28;;;;;;;5.40;3.85;;;18.30;99.90;;;;;;5055160;28;20036;-70
2023/10/29 01:05:55;;;;;;;4.45;4.00;;;17.70;99.90;;;;;;5056475;28;20044;-71
2023/10/29 01:08:22;;;;;;;4.68;3.92;;;18.20;99.90;;;;;;5057332;28;20484;-70
2023/10/29 01:10:47;;;;;;;4.90;3.95;;;16.80;99.90;;;;;;5056569;28;20040;-70
2023/10/29 01:13:13;;;;;;;4.28;3.88;;;18.00;99.90;;;;;;5038212;28;20415;-69
2023/10/29 01:15:39;;;;;;;4.45;4.05;;;16.90;99.90;;;;;;5055158;28;20043;-70
2023/10/29 01:18:06;;;;;;;4.75;4.25;;;;;;;;;;5054895;28;20036;-71
2023/10/29 01:20:32;;;;;;;5.80;5.13;;;18.00;99.90;;;;;;5054681;28;20056;-70
2023/10/29 01:22:57;;;;;;;6.05;4.90;;;17.00;99.90;;;;;;5038434;28;20374;-70
2023/10/29 01:25:23;;;;;;;6.45;5.10;;;;;;;;;;5054564;28;20039;-69
2023/10/29 01:27:49;;;;;;;5.80;4.80;;;;;;;;;;5055050;28;20044;-70
2023/10/29 01:30:17;;;;;;;6.55;4.65;;;;;;;;;;5054558;28;20637;-70
2023/10/29 01:32:42;;;;;;;6.75;5.18;;;18.30;99.90;;;;;;5054728;28;20052;-69
2023/10/29 01:35:08;;;;;;;6.35;5.10;;;17.60;99.90;;;;;;5054705;28;20093;-70
2023/10/29 01:37:34;;;;;;;6.40;5.15;;;;;;;;;;5053949;28;20444;-70
2023/10/29 01:40:00;;;;;;;7.85;5.40;;;;;;;;;;5054277;28;20037;-70
2023/10/29 01:42:26;;;;;;;5.72;4.60;;;;;;;;;;5054555;28;20044;-70
2023/10/29 01:44:52;;;;;;;7.53;5.03;;;17.20;99.90;;;;;;5037827;28;20064;-71
2023/10/29 01:47:17;;;;;;;6.35;5.40;;;18.50;99.90;;;;;;5054414;28;20040;-70
2023/10/29 01:49:43;;;;;;;5.38;4.65;;;17.10;99.90;;;;;;5054769;28;20047;-70
2023/10/29 01:52:08;;;;;;;5.53;4.93;;;18.60;99.90;;;;;;5054381;28;20046;-70
2023/10/29 01:54:35;;;;;;;7.60;4.80;;;;;;;;;;5054198;28;20040;-71
2023/10/29 01:57:00;;;;;;;5.15;4.65;;;18.60;99.90;;;;;;5054421;28;20044;-71
2023/10/29 01:59:28;;;;;;;6.25;4.35;;;17.20;99.90;;;;;;5054162;28;20054;-70
2023/10/29 02:01:54;;;;;;;7.72;4.85;;;17.90;99.90;;;;;;5037542;28;20123;-70
2023/10/29 02:04:26;;;;;;;6.00;4.32;;;;;;;;;;5054228;28;20107;-70
2023/10/29 02:06:52;;;;;;;6.10;4.00;;;17.60;99.90;;;;;;5054321;28;20032;-70
2023/10/29 02:09:18;;;;;;;5.60;3.75;;;18.40;99.90;;;;;;5054391;28;20075;-69
2023/10/29 02:11:44;;;;;;;4.55;3.83;;;18.40;99.90;;;;;;5054120;28;20079;-69
2023/10/29 02:14:09;;;;;;;6.32;3.75;;;18.60;99.90;;;;;;5071675;28;20043;-70
2023/10/29 02:16:35;;;;;;;5.10;3.13;;;18.40;99.90;;;;;;5053939;28;20036;-70
2023/10/29 02:19:00;;;;;;;5.35;2.88;;;18.30;99.90;;;;;;5053883;28;20040;-70
2023/10/29 02:21:26;;;;;;;4.75;3.13;;;17.80;99.90;;;;;;5053608;28;20052;-70
2023/10/29 02:23:52;;;;;;;4.68;2.70;;;19.10;99.90;;;;;;5053987;28;20067;-70
2023/10/29 02:26:18;;;;;;;5.00;2.67;;;19.00;99.90;;;;;;5071676;28;20045;-70
2023/10/29 02:28:44;;;;;;;5.38;2.63;;;;;;;;;;5054140;28;20031;-70
2023/10/29 02:31:17;;;;;;;3.78;2.42;;;18.20;99.90;;;;;;5053643;28;20076;-71
2023/10/29 02:33:49;;;;;;;3.42;2.33;;;17.80;99.90;;;;;;5053407;28;20044;-69
2023/10/29 02:36:15;;;;;;;3.58;2.05;;;17.60;99.90;;;;;;5037262;28;20036;-70
2023/10/29 02:38:42;;;;;;;4.88;1.88;;;17.40;99.90;;;;;;5053584;28;20041;-70
2023/10/29 02:41:08;;;;;;;9.00;2.13;;;17.60;99.90;;;;;;5053558;28;20480;-70
2023/10/29 02:43:34;;;;;;;3.78;1.80;;;18.20;99.90;;;;;;5053155;28;20044;-70
2023/10/29 02:46:00;;;;;;;4.68;1.67;;;18.00;99.90;;;;;;5053577;28;20094;-70
2023/10/29 02:48:26;;;;;;;4.88;1.98;;;17.60;99.90;;;;;;5053346;28;20041;-70
2023/10/29 02:50:53;;;;;;;3.40;1.60;;;18.50;99.90;;;;;;5053341;28;20048;-70
2023/10/29 02:53:19;;;;;;;2.85;1.67;;;18.80;99.90;;;;;;5053593;28;20127;-70
2023/10/29 02:55:46;;;;;;;4.13;1.70;;;;;;;;;;5053800;28;20222;-70
2023/10/29 02:58:12;;;;;;;5.10;1.65;;;17.70;99.90;;;;;;5071946;28;20055;-70
2023/10/29 03:00:38;;;;;;;6.47;1.67;;;19.00;99.90;;;;;;5036640;28;20037;-70
2023/10/29 03:03:04;;;;;;;3.97;1.42;;;17.60;99.90;;;;;;5019327;28;20037;-68
2023/10/29 03:05:30;;;;;;;2.67;1.52;;;;;;;;;;5016909;28;20045;-70
2023/10/29 03:07:56;;;;;;;4.95;1.95;;;;;;;;;;5051184;28;20128;-71
2023/10/29 03:10:22;;;;;;;4.38;1.70;;;19.10;99.90;;;;;;5033448;28;20522;-70
2023/10/29 03:12:48;;;;;;;2.78;1.60;;;;;;;;;;5033509;28;20086;-71
2023/10/29 03:15:14;;;;;;;5.18;1.48;;;;;;;;;;5050828;28;20041;-70
2023/10/29 03:17:39;;;;;;;4.68;1.42;;;18.10;99.90;;;;;;5033397;28;20128;-70
2023/10/29 03:20:05;;;;;;;2.65;1.50;;;18.60;99.90;;;;;;5016830;28;20040;-70
2023/10/29 03:22:31;;;;;;;3.22;1.48;;;18.30;99.90;;;;;;5033377;28;20401;-70
2023/10/29 03:24:57;;;;;;;3.15;1.27;;;19.10;99.90;;;;;;5016699;28;20115;-70
2023/10/29 03:27:23;;;;;;;3.80;1.48;;;;;;;;;;5033486;28;20037;-70
2023/10/29 03:29:49;;;;;;;1.77;1.20;;;;;;;;;;5033066;28;20497;-71
2023/10/29 03:32:15;;;;;;;4.53;1.38;;;;;;;;;;5050981;28;20049;-70
2023/10/29 03:34:40;;;;;;;2.75;1.58;;;19.10;99.90;;;;;;5033167;28;20045;-70
2023/10/29 03:37:06;;;;;;;2.88;1.30;;;17.80;99.90;;;;;;5033376;28;20080;-70
2023/10/29 03:39:31;;;;;;;2.45;1.40;;;17.80;99.90;;;;;;5033427;28;20045;-70
2023/10/29 03:41:57;;;;;;;2.25;0.90;;;;;;;;;;5016511;28;20087;-70
2023/10/29 03:44:23;;;;;;;5.60;1.58;;;;;;;;;;5032862;28;20049;-71
2023/10/29 03:46:52;;;;;;;2.35;1.27;;;17.60;99.90;;;;;;5032953;28;20048;-71
2023/10/29 03:49:19;;;;;;;1.75;1.10;;;;;;;;;;5033021;28;20037;-70
2023/10/29 03:51:46;;;;;;;4.18;1.20;;;18.10;99.90;;;;;;5032930;28;20044;-70
2023/10/29 03:54:12;;;;;;;2.97;1.08;;;18.80;99.90;;;;;;5032844;28;20044;-70
2023/10/29 03:56:38;;;;;;;2.10;0.93;;;19.20;99.90;;;;;;5032739;28;20043;-70
2023/10/29 03:59:04;;;;;;;3.80;1.45;;;;;;;;;;5032943;28;20067;-71
2023/10/29 04:01:30;;;;;;;3.92;1.13;;;;;;;;;;5017169;28;20053;-70
2023/10/29 04:03:56;;;;;;;4.25;1.23;;;;;;;;;;5036459;28;20045;-71
2023/10/29 04:06:22;;;;;;;3.60;1.42;;;;;;;;;;5036181;28;20127;-70
2023/10/29 04:08:48;;;;;;;4.55;1.48;;;;;;;;;;5036424;28;20098;-70
2023/10/29 04:11:14;;;;;;;3.53;0.93;;;19.00;99.90;;;;;;5036414;28;20179;-70
2023/10/29 04:13:40;;;;;;;2.30;0.98;;;18.50;99.90;;;;;;5036080;28;20131;-70
2023/10/29 04:16:06;;;;;;;5.20;1.00;;;18.50;99.90;;;;;;5036463;28;20045;-70
2023/10/29 04:18:31;;;;;;;3.70;1.00;;;18.00;99.90;;;;;;5036944;28;20453;-70
2023/10/29 04:21:06;;;;;;;4.00;1.67;;;18.00;99.90;;;;;;5036141;28;20048;-70
2023/10/29 04:23:31;;;;;;;4.30;0.82;;;18.90;99.90;;;;;;5036269;28;20037;-69
2023/10/29 04:25:57;;;;;;;2.47;0.85;;;18.40;99.90;;;;;;5036351;28;20520;-70
2023/10/29 04:28:23;;;;;;;1.65;0.70;;;;;;;;;;5035845;28;20029;-70
2023/10/29 04:30:49;;;;;;;1.90;0.60;;;;;;;;;;5035869;28;20118;-71
2023/10/29 04:33:15;;;;;;;4.15;0.90;;;18.20;99.90;;;;;;5053560;28;20041;-70
2023/10/29 04:35:41;;;;;;;1.50;0.60;;;18.60;99.90;;;;;;5036327;28;20678;-70
2023/10/29 04:38:06;;;;;;;3.83;0.80;;;17.80;99.90;;;;;;5019358;28;20095;-70
2023/10/29 04:40:33;;;;;;;2.70;0.70;;;18.70;99.90;;;;;;5035950;28;20045;-70
2023/10/29 04:42:59;;;;;;;0.90;0.40;;;17.80;99.90;;;;;;5036105;28;20037;-70
2023/10/29 04:45:24;;;;;;;2.00;0.50;;;18.00;99.90;;;;;;5035546;28;20033;-70
2023/10/29 04:47:50;;;;;;;2.13;0.57;;;;;;;;;;5035828;28;20091;-71
2023/10/29 04:50:16;;;;;;;2.47;0.40;;;;;;;;;;5035566;28;20072;-70
2023/10/29 04:52:42;;;;;;;0.88;0.50;;;17.50;99.90;;;;;;5035636;28;20130;-70
2023/10/29 04:55:08;;;;;;;1.77;0.60;;;18.00;99.90;;;;;;5035449;28;20037;-70
2023/10/29 04:57:35;;;;;;;1.20;0.40;;;;;;;;;;5035223;28;20120;-70
2023/10/29 05:00:01;;;;;;;2.22;0.88;;;;;;;;;;5018995;28;20083;-71
2023/10/29 05:02:27;;;;;;;2.50;0.75;;;;;;;;;;5035339;28;20120;-70
2023/10/29 05:04:53;;;;;;;0.95;0.40;;;17.60;99.90;;;;;;5035329;28;20059;-70
2023/10/29 05:07:19;;;;;;;1.30;0.50;;;;;;;;;;5035205;28;20032;-71
2023/10/29 05:09:46;;;;;;;0.50;0.38;;;;;;;;;;5035071;28;20047;-71
2023/10/29 05:12:12;;;;;;;1.00;0.60;;;18.30;99.90;;;;;;5034828;28;20052;-70
2023/10/29 05:14:38;;;;;;;1.05;0.50;;;;;;;;;;5034316;28;20063;-70
2023/10/29 05:17:03;;;;;;;2.10;0.60;;;17.40;99.90;;;;;;5035213;28;20037;-70
2023/10/29 05:19:29;;;;;;;1.35;0.50;;;;;;;;;;5035192;28;20125;-71
2023/10/29 05:21:55;;;;;;;1.13;0.60;;;18.30;99.90;;;;;;5035107;28;20769;-70
2023/10/29 05:24:21;;;;;;;1.70;0.50;;;18.50;99.90;;;;;;5018586;28;20037;-70
2023/10/29 05:26:47;;;;;;;2.38;0.60;;;17.60;99.90;;;;;;5034832;28;20036;-70
2023/10/29 05:29:12;;;;;;;1.27;0.52;;;18.50;99.90;;;;;;5035007;28;20044;-70
2023/10/29 05:31:38;;;;;;;1.20;0.50;;;;;;;;;;5018635;28;20053;-70
2023/10/29 05:34:05;;;;;;;2.00;0.70;;;;;;;;;;5034586;28;20045;-71
2023/10/29 05:36:31;;;;;;;3.92;1.00;;;17.70;99.90;;;;;;5018013;28;20068;-70
2023/10/29 05:38:57;;;;;;;3.80;0.82;;;17.60;99.90;;;;;;5034768;28;20163;-70
2023/10/29 05:41:23;;;;;;;1.58;0.55;;;;;;;;;;5034518;28;20127;-71
2023/10/29 05:43:49;;;;;;;4.07;0.90;;;;;;;;;;5034468;28;20060;-70
2023/10/29 05:46:15;;;;;;;2.33;0.93;;;;;;;;;;5034699;28;20424;-70
2023/10/29 05:48:41;;;;;;;5.57;0.73;;;18.70;99.90;;;;;;5052581;28;20041;-70
2023/10/29 05:51:12;;;;;;;5.95;1.15;;;;;;;;;;5034468;28;20091;-71
2023/10/29 05:53:38;;;;;;;0.80;0.68;;;;;;;;;;5017729;28;20450;-70
2023/10/29 05:56:04;;;;;;;3.63;0.65;;;18.00;99.90;;;;;;5034295;28;20052;-70
2023/10/29 05:58:30;;;;;;;2.88;1.17;;;18.80;99.90;;;;;;5034454;28;20052;-70
2023/10/29 06:00:56;;;;;;;6.45;1.10;;;;;;;;;;5034203;28;20041;-69
2023/10/29 06:03:22;;;;;;;1.63;0.60;;;;;;;;;;5017302;28;20043;-70
2023/10/29 06:05:48;;;;;;;3.38;0.98;;;;;;;;;;5033330;28;20531;-70
2023/10/29 06:08:14;;;;;;;3.03;0.80;;;;;;;;;;5033471;28;20098;-70
2023/10/29 06:10:40;;;;;;;1.52;0.52;;;;;;;;;;5051471;28;20124;-70
2023/10/29 06:13:06;;;;;;;0.95;0.55;;;;;;;;;;5051657;28;20562;-70
2023/10/29 06:15:31;;;;;;;2.85;0.60;;;17.90;99.90;;;;;;5017669;28;20048;-70
2023/10/29 06:17:57;;;;;;;0.90;0.40;;;18.40;99.90;;;;;;5017691;28;20043;-70
2023/10/29 06:20:23;;;;;;;0.80;0.40;;;18.30;99.90;;;;;;5051861;28;20489;-70
2023/10/29 06:22:49;;;;;;;2.25;0.55;;;;;;;;;;5033785;28;20116;-69
2023/10/29 06:25:15;;;;;;;1.35;0.50;;;18.00;99.90;;;;;;5051248;28;20457;-69
2023/10/29 06:27:41;;;;;;;1.55;0.63;;;17.50;99.90;;;;;;5017549;28;20041;-70
2023/10/29 06:30:07;;;;;;;4.05;0.70;;;17.80;99.90;;;;;;5033853;28;20504;-70
2023/10/29 06:32:33;;;;;;;2.17;0.80;;;18.20;99.90;;;;;;5033817;28;20041;-69
2023/10/29 06:34:59;;;;;;;3.53;0.70;;;;;;;;;;5033911;28;20044;-71
2023/10/29 06:37:24;;;;;;;3.80;0.95;;;17.50;99.90;;;;;;5051374;28;20083;-69
2023/10/29 06:39:50;;;;;;;2.05;0.70;;;17.80;99.90;;;;;;5033667;28;20666;-69
2023/10/29 06:42:16;;;;;;;4.10;0.77;;;18.20;99.90;;;;;;5033586;28;20077;-69
2023/10/29 06:44:42;;;;;;;2.00;0.82;;;;;;;;;;5051382;28;20037;-70
2023/10/29 06:47:08;;;;;;;5.60;1.30;;;;;;;;;;5033474;28;20076;-70
2023/10/29 06:49:34;;;;;;;2.83;0.65;;;;;;;;;;5051509;28;20033;-71
2023/10/29 06:52:00;;;;;;;2.83;0.70;;;;;;;;;;5033724;28;20087;-71
2023/10/29 06:54:25;;;;;;;4.43;0.88;;;18.50;99.90;;;;;;5033908;28;20053;-70
2023/10/29 06:56:51;;;;;;;5.05;2.05;;;17.80;99.90;;;;;;5033254;28;20044;-70
2023/10/29 06:59:18;;;;;;;2.10;0.80;;;18.10;99.90;;;;;;5032541;28;20049;-70
2023/10/29 07:01:44;;;;;;;3.92;0.90;;;;;;;;;;5033277;28;20045;-69
2023/10/29 07:04:10;;;;;;;2.75;0.75;;;17.90;99.90;;;;;;5032445;28;20128;-69
2023/10/29 07:06:35;;;;;;;5.72;0.95;;;18.00;99.90;;;;;;5053173;28;20029;-67
2023/10/29 07:09:01;;;;;;;2.47;0.80;;;18.10;99.90;;;;;;5036347;28;20032;-68
2023/10/29 07:11:30;;;;;;;3.53;0.93;;;18.60;99.90;;;;;;5070718;28;20044;-68
2023/10/29 07:13:55;;;;;;;2.85;0.68;;;18.10;99.90;;;;;;5051703;28;20573;-67
2023/10/29 07:16:21;;;;;;;3.60;1.10;;;17.90;99.90;;;;;;5052545;28;20170;-70
2023/10/29 07:18:47;;;;;;;3.55;1.02;;;;;;;;;;5068975;28;20499;-69
2023/10/29 07:21:16;;;;;;;6.35;1.00;;;18.20;99.90;;;;;;5052421;28;20089;-68
2023/10/29 07:23:42;;;;;;;3.75;0.90;;;;;;;;;;5051994;28;20036;-67
2023/10/29 07:26:07;;;;;;;3.53;0.85;;;18.80;99.90;;;;;;5051638;28;20476;-68
2023/10/29 07:28:34;;;;;;;4.22;0.85;;;;;;;;;;5070328;28;20037;-69
2023/10/29 07:31:03;;;;;;;5.03;1.13;;;18.30;99.90;;;;;;5050298;28;20409;-68
2023/10/29 07:33:30;;;;;;;2.78;1.08;;;;;;;;;;5052115;28;20496;-68
2023/10/29 07:35:56;;;;;;;2.22;0.90;;;;;;;;;;5069992;28;20044;-69
2023/10/29 07:38:22;;;;;;;1.95;0.77;;;;;;;;;;5039523;28;20040;-67
2023/10/29 07:40:49;;;;;;;3.58;0.90;;;18.30;99.90;;;;;;5056270;28;20036;-68
2023/10/29 07:43:15;;;;;;;6.80;1.42;;;18.20;99.90;;;;;;5073858;28;20043;-68
2023/10/29 07:45:41;;;;;;;5.13;1.00;;;18.20;99.90;;;;;;5057075;28;20028;-68
2023/10/29 07:48:06;;;;;;;2.85;1.45;;;18.40;99.90;;;;;;5039205;28;20036;-68
2023/10/29 07:50:32;;;;;;;2.08;0.95;;;;;;;;;;5055417;28;20063;-70
2023/10/29 07:52:58;;;;;;;3.65;0.93;;;18.50;99.90;;;;;;5054828;28;20028;-69
2023/10/29 07:55:23;;;;;;;3.90;0.82;;;18.40;99.90;;;;;;5073707;28;20508;-69
2023/10/29 07:57:49;;;;;;;9.05;1.52;;;18.70;99.90;;;;;;5056028;28;20377;-68
2023/10/29 08:00:15;;;;;;;6.60;1.23;;;18.70;99.90;;;;;;5056021;28;20487;-69
2023/10/29 08:02:42;;;;;;;5.00;1.13;;;18.90;99.90;;;;;;5039248;28;20028;-69
2023/10/29 08:05:10;;;;;;;3.25;0.90;;;18.60;99.90;;;;;;5055211;28;20492;-68
2023/10/29 08:07:36;;;;;;;7.22;1.23;;;19.10;99.90;;;;;;5055659;28;20036;-69
2023/10/29 08:10:02;;;;;;;5.65;1.20;;;19.10;99.90;;;;;;5056089;28;20056;-68
2023/10/29 08:12:29;;;;;;;5.40;1.02;;;19.20;99.90;;;;;;5053112;28;20043;-69
2023/10/29 08:14:55;;;;;;;4.13;1.02;;;19.00;99.90;;;;;;5055594;28;20040;-69
2023/10/29 08:17:21;;;;;;;4.05;1.08;;;18.90;99.90;;;;;;5055524;28;20139;-68
2023/10/29 08:19:47;;;;;;;4.22;1.45;;;19.00;99.90;;;;;;5073514;28;20056;-69
2023/10/29 08:22:13;;;;;;;10.55;1.83;;;19.20;99.90;;;;;;5073779;28;20036;-68
2023/10/29 08:24:40;;;;;;;6.78;1.20;;;19.00;99.90;;;;;;5073027;28;20037;-69
2023/10/29 08:27:07;;;;;;;9.30;1.20;;;19.20;99.90;;;;;;5038802;28;20033;-69
2023/10/29 08:29:38;;;;;;;3.42;1.20;;;19.40;99.90;;;;;;5055810;28;20157;-68
2023/10/29 08:32:04;;;;;;;8.30;1.10;;;18.80;99.90;;;;;;5038523;28;20032;-67
2023/10/29 08:34:30;;;;;;;5.53;1.38;;;;;;;;;;5073196;28;20703;-68
2023/10/29 08:36:56;;;;;;;4.80;1.33;;;19.00;99.90;;;;;;5055118;28;20115;-68
2023/10/29 08:39:22;;;;;;;5.05;1.38;;;;;;;;;;5056061;28;20479;-68
2023/10/29 08:41:49;;;;;;;4.32;1.13;;;;;;;;;;5055691;28;20109;-68
2023/10/29 08:44:15;;;;;;;5.68;1.10;;;;;;;;;;5054783;28;20127;-69
2023/10/29 08:46:41;;;;;;;4.50;0.80;;;;;;;;;;5052225;28;20056;-69
2023/10/29 08:49:07;;;;;;;3.35;1.10;;;;;;;;;;5054910;28;20056;-69
2023/10/29 08:51:33;;;;;;;5.95;1.50;;;19.40;99.90;;;;;;5054662;28;20475;-69
2023/10/29 08:54:02;;;;;;;10.35;1.63;;;18.80;99.90;;;;;;5055291;28;20048;-69
2023/10/29 08:56:29;;;;;;;11.65;1.58;;;19.20;99.90;;;;;;5055635;28;20044;-69
2023/10/29 08:58:55;;;;;;;5.25;0.98;;;19.20;99.90;;;;;;5055822;28;20044;-69
2023/10/29 09:01:20;;;;;;;7.80;1.48;;;19.30;99.90;;;;;;5038551;28;20048;-69
2023/10/29 09:03:46;;;;;;;5.20;1.00;;;19.00;99.90;;;;;;5046995;28;20044;-68
2023/10/29 09:06:12;;;;;;;6.50;0.95;;;;;;;;;;5040198;28;20033;-69
2023/10/29 09:08:38;;;;;;;4.25;1.15;;;19.20;99.90;;;;;;5042378;28;20567;-67
2023/10/29 09:11:04;;;;;;;4.43;1.20;;;;;;;;;;5041011;28;20511;-69
2023/10/29 09:13:30;;;;;;;4.80;1.00;;;;;;;;;;5051832;28;20738;-67
2023/10/29 09:15:57;;;;;;;6.32;1.00;;;;;;;;;;5042053;28;20044;-68
2023/10/29 09:18:23;;;;;;;3.53;1.45;;;19.30;99.90;;;;;;5036054;28;20092;-68
2023/10/29 09:20:50;;;;;;;6.32;1.30;;;;;;;;;;5038823;28;20459;-69
2023/10/29 09:23:16;;;;;;;6.15;1.17;;;;;;;;;;5035106;28;20139;-68
2023/10/29 09:25:44;;;;;;;4.63;1.38;;;19.20;99.90;;;;;;5045644;28;20630;-68
2023/10/29 09:28:13;;;;;;;3.83;1.15;;;19.40;99.90;;;;;;5044187;28;20036;-68
2023/10/29 09:30:40;;;;;;;5.22;1.10;;;19.50;99.90;;;;;;5026617;28;20044;-69
2023/10/29 09:33:07;;;;;;;6.65;2.08;;;;;;;;;;5040539;28;20404;-67
2023/10/29 09:35:34;;;;;;;7.38;1.20;;;19.40;99.90;;;;;;5022333;28;20043;-70
2023/10/29 09:38:00;;;;;;;5.13;1.00;;;;;;;;;;5038283;28;20077;-69
2023/10/29 09:40:26;;;;;;;6.10;1.23;;;;;;;;;;5041105;28;20044;-70
2023/10/29 09:42:54;;;;;;;4.25;1.10;;;19.70;99.90;;;;;;5039760;28;20045;-70
2023/10/29 09:45:26;;;;;;;5.30;1.50;;;19.70;99.90;;;;;;5043155;28;20037;-69
2023/10/29 09:47:55;;;;;;;4.70;1.30;;;19.80;99.90;;;;;;5023085;28;20404;-70
2023/10/29 09:50:22;;;;;;;7.97;1.20;;;19.70;99.90;;;;;;5044469;28;20073;-69
2023/10/29 09:52:55;;;;;;;7.05;1.80;;;19.80;99.90;;;;;;5035239;28;20043;-69
2023/10/29 09:55:21;;;;;;;;;;;19.90;99.90;;;;;;5031636;28;20082;-71
2023/10/29 09:57:47;;;;;;;5.13;1.25;;;20.00;99.90;;;;;;5040296;28;19920;-69
2023/10/29 10:00:15;;;;;;;4.35;1.30;;;19.90;99.90;;;;;;5041290;28;20148;-69
2023/10/29 10:02:57;;;;;;;5.20;1.10;;;19.80;99.90;;;;;;5042715;28;20527;-65
2023/10/29 10:05:25;;;;;;;6.70;1.40;;;19.80;99.90;;;;;;5023880;28;20044;-69
2023/10/29 10:07:52;;;;;;;6.95;1.30;;;19.70;99.90;;;;;;5041150;28;20521;-69
2023/10/29 10:10:20;;;;;;;6.78;1.13;;;19.70;99.90;;;;;;5043820;28;20036;-69
2023/10/29 10:12:51;;;;;;;5.85;1.42;;;19.90;99.90;;;;;;5024472;28;20582;-68
2023/10/29 10:15:18;;;;;;;1.88;1.00;;;19.90;99.90;;;;;;5034367;28;20048;-69
2023/10/29 10:17:49;;;;;;;5.40;1.52;;;19.80;99.90;;;;;;5040612;28;20093;-69
2023/10/29 10:20:16;;;;;;;4.10;1.10;;;;;;;;;;5058641;28;20049;-71
2023/10/29 10:22:43;;;;;;;4.45;1.17;;;19.80;99.90;;;;;;5041107;28;20059;-69
2023/10/29 10:25:17;;;;;;;4.57;1.50;;;19.40;99.90;;;;;;5041349;28;20029;-67
2023/10/29 10:27:51;;;;;;;3.55;1.20;;;19.70;99.90;;;;;;5063061;28;20044;-68
2023/10/29 10:30:25;;;;;;;4.05;1.15;;;19.60;99.90;;;;;;5015323;28;20036;-68
2023/10/29 10:32:51;;;;;;;3.05;0.90;;;19.70;99.90;;;;;;5038199;28;20186;-69
2023/10/29 10:35:17;;;;;;;6.00;1.40;;;19.70;99.90;;;;;;5033369;28;20045;-69
2023/10/29 10:37:55;;;;;;;6.82;1.45;;;19.60;99.90;;;;;;5043595;28;20040;-69
2023/10/29 10:40:23;;;;;;;7.63;1.60;;;19.50;99.90;;;;;;5021502;28;20044;-69
2023/10/29 10:42:56;;;;;;;6.85;1.25;;;19.70;99.90;;;;;;5044249;28;20086;-69
2023/10/29 10:45:26;;;;;;;4.85;1.33;;;19.50;99.90;;;;;;5037230;28;20091;-69
2023/10/29 10:48:00;;;;;;;6.18;1.77;;;19.40;99.90;;;;;;5040249;28;20083;-71
2023/10/29 10:50:27;;;;;;;4.93;1.58;;;19.60;99.90;;;;;;5032431;28;20080;-69
2023/10/29 10:52:54;;;;;;;3.08;0.80;;;19.50;99.90;;;;;;5051042;28;20550;-69
2023/10/29 10:55:20;;;;;;;7.10;1.40;;;19.50;99.90;;;;;;5040032;28;20048;-68
2023/10/29 10:57:49;;;;;;;7.53;1.45;;;19.80;99.90;;;;;;5042540;28;20103;-68
2023/10/29 11:00:16;;;;;;;5.75;1.13;;;19.50;99.90;;;;;;5045290;28;20072;-70
2023/10/29 11:02:43;;;;;;;9.65;1.83;;;19.70;99.90;;;;;;5044514;28;20071;-69
2023/10/29 11:05:10;;;;;;;5.80;1.25;;;19.60;99.90;;;;;;5052286;28;20037;-69
2023/10/29 11:07:38;;;;;;;5.30;1.42;;;19.90;99.90;;;;;;5071240;28;20047;-69
2023/10/29 11:10:04;;;;;;;7.85;1.50;;;19.90;99.90;;;;;;5053995;28;20048;-70
2023/10/29 11:12:34;;;;;;;6.82;1.35;;;20.10;99.90;;;;;;5057187;28;20040;-69
2023/10/29 11:15:13;;;;;;;5.35;1.73;;;20.10;99.90;;;;;;5056849;28;20033;-70
2023/10/29 11:17:57;;;;;;;4.63;1.27;;;20.20;99.90;;;;;;5056101;28;20051;-70
2023/10/29 11:20:49;;;;;;;6.32;1.35;;;20.10;99.90;;;;;;5056066;28;20037;-70
2023/10/29 11:23:26;;;;;;;8.82;1.83;;;20.40;99.90;;;;;;5055312;28;20106;-70
2023/10/29 11:26:15;;;;;;;8.82;2.22;;;20.30;99.90;;;;;;5055239;28;20415;-70
2023/10/29 11:28:42;;;;;;;5.68;1.10;;;20.10;99.90;;;;;;5040818;28;20053;-70
2023/10/29 11:31:16;;;;;;;6.45;1.52;;;20.30;99.90;;;;;;5074790;28;20040;-69
2023/10/29 11:33:43;;;;;;;;;;;20.60;99.90;;;;;;5040657;28;20040;-70
2023/10/29 11:36:29;;;;;;;9.70;1.92;;;20.00;99.90;;;;;;5074926;28;20006;-71
2023/10/29 11:39:15;;;;;;;7.65;1.60;;;20.20;99.90;;;;;;5057033;28;20044;-70
2023/10/29 11:41:42;;;;;;;7.35;1.60;;;20.00;99.90;;;;;;5056541;28;20055;-70
2023/10/29 11:44:32;;;;;;;8.02;2.47;;;20.50;99.90;;;;;;5039771;28;20045;-70
2023/10/29 11:46:58;;;;;;;10.80;2.25;;;20.00;99.90;;;;;;5052821;28;20127;-70
2023/10/29 11:49:25;;;;;;;8.10;1.70;;;19.90;99.90;;;;;;5056795;28;20475;-70
2023/10/29 11:52:01;;;;;;;5.45;1.25;;;20.10;99.90;;;;;;5056348;28;20071;-70
2023/10/29 11:54:32;;;;;;;8.60;1.83;;;19.60;99.90;;;;;;5056321;28;20044;-70
2023/10/29 11:56:59;;;;;;;8.75;1.92;;;19.80;99.90;;;;;;5055063;28;20070;-71
2023/10/29 11:59:25;;;;;;;6.03;1.38;;;19.60;99.90;;;;;;5040355;28;20040;-70
2023/10/29 12:01:51;;;;;;;21.05;4.32;;;20.00;99.90;;;;;;5056280;28;20040;-70
2023/10/29 12:04:17;;;;;;;10.50;1.35;;;19.90;99.90;;;;;;5045049;28;20470;-70
2023/10/29 12:06:48;;;;;;;7.35;1.80;;;19.70;99.90;;;;;;5036405;28;20041;-71
2023/10/29 12:09:21;;;;;;;9.20;1.80;;;19.80;99.90;;;;;;5020077;28;20563;-70
2023/10/29 12:11:53;;;;;;;7.55;1.50;;;19.80;99.90;;;;;;5036706;28;20041;-71
2023/10/29 12:14:42;;;;;;;19.98;1.90;;;20.10;99.90;;;;;;5036514;28;20040;-68
2023/10/29 12:17:08;;;;;;;7.70;1.50;;;19.60;99.90;;;;;;5036430;28;20057;-70
2023/10/29 12:19:35;;;;;;;10.20;1.60;;;19.70;99.90;;;;;;5036403;28;20514;-71
2023/10/29 12:22:01;;;;;;;9.50;1.50;;;19.80;99.90;;;;;;5035359;28;20033;-70
2023/10/29 12:24:26;;;;;;;9.18;1.80;;;19.70;99.90;;;;;;5054006;28;20099;-70
2023/10/29 12:26:52;;;;;;;10.75;2.42;;;19.60;99.90;;;;;;5048502;28;20040;-70
2023/10/29 12:29:18;;;;;;;8.48;1.80;;;19.70;99.90;;;;;;5056717;28;20037;-70
2023/10/29 12:31:47;;;;;;;9.60;2.30;;;19.50;99.90;;;;;;5051893;28;20039;-70
2023/10/29 12:34:12;;;;;;;8.60;1.60;;;19.90;99.90;;;;;;5054649;28;20080;-70
2023/10/29 12:36:38;;;;;;;5.57;1.65;;;19.90;99.90;;;;;;5056009;28;20440;-70
2023/10/29 12:39:04;;;;;;;9.85;1.85;;;19.60;99.90;;;;;;5039514;28;20044;-70
2023/10/29 12:41:31;;;;;;;8.52;1.70;;;19.60;99.90;;;;;;5055781;28;20189;-71
2023/10/29 12:43:57;;;;;;;8.98;1.45;;;19.90;99.90;;;;;;5055623;28;20033;-70
2023/10/29 12:46:24;;;;;;;9.73;1.67;;;20.10;99.90;;;;;;5055740;28;20404;-70
2023/10/29 12:49:01;;;;;;;9.77;1.67;;;20.20;99.90;;;;;;5055652;28;20040;-70
2023/10/29 12:51:40;;;;;;;7.90;1.67;;;19.70;99.90;;;;;;5055888;28;20051;-70
2023/10/29 12:54:17;;;;;;;10.70;1.98;;;19.80;99.90;;;;;;5055334;28;20051;-71
2023/10/29 12:56:49;;;;;;;9.50;1.77;;;20.30;99.90;;;;;;5055432;28;20044;-70
2023/10/29 12:59:15;;;;;;;8.40;1.80;;;19.80;99.90;;;;;;5055763;28;20102;-70
2023/10/29 13:01:52;;;;;;;13.95;2.30;;;20.40;99.90;;;;;;5055025;28;20044;-71
2023/10/29 13:04:23;;;;;;;11.88;2.55;;;19.80;99.90;;;;;;5038891;28;20090;-70
2023/10/29 13:06:49;;;;;;;8.15;1.55;;;20.20;99.90;;;;;;5073019;28;20047;-70
2023/10/29 13:09:20;;;;;;;7.82;1.50;;;19.50;99.90;;;;;;5038715;28;20047;-70
2023/10/29 13:11:46;;;;;;;6.18;1.98;;;19.70;99.90;;;;;;5038016;28;20131;-70
2023/10/29 13:14:12;;;;;;;23.08;2.75;;;20.00;99.90;;;;;;5054014;28;20089;-70